sensor_id;sensor_type;location;lat;lon;timestamp;temperature;humidity
66343;DHT22;53144;51.524;5.080;2022-12-29T00:01:09;11.26;90.72
66343;DHT22;53144;51.524;5.080;2022-12-29T00:03:34;11.18;91.77
66343;DHT22;53144;51.524;5.080;2022-12-29T00:06:00;11.12;91.42
66343;DHT22;53144;51.524;5.080;2022-12-29T00:08:26;11.08;91.48
66343;DHT22;53144;51.524;5.080;2022-12-29T00:13:35;10.88;92.01
66343;DHT22;53144;51.524;5.080;2022-12-29T00:16:19;10.69;93.26
66343;DHT22;53144;51.524;5.080;2022-12-29T00:18:45;10.58;93.36
66343;DHT22;53144;51.524;5.080;2022-12-29T00:21:13;10.48;94.26
66343;DHT22;53144;51.524;5.080;2022-12-29T00:23:57;10.40;94.64
66343;DHT22;53144;51.524;5.080;2022-12-29T00:26:41;10.30;95.24
66343;DHT22;53144;51.524;5.080;2022-12-29T00:29:25;10.26;95.49
66343;DHT22;53144;51.524;5.080;2022-12-29T00:32:10;10.21;95.82
66343;DHT22;53144;51.524;5.080;2022-12-29T00:34:54;10.16;96.16
66343;DHT22;53144;51.524;5.080;2022-12-29T00:37:41;10.19;96.35
66343;DHT22;53144;51.524;5.080;2022-12-29T00:40:26;10.20;96.35
66343;DHT22;53144;51.524;5.080;2022-12-29T00:43:10;10.17;96.71
66343;DHT22;53144;51.524;5.080;2022-12-29T00:45:53;10.19;96.82
66343;DHT22;53144;51.524;5.080;2022-12-29T00:48:19;10.20;96.94
66343;DHT22;53144;51.524;5.080;2022-12-29T00:51:05;10.19;97.07
66343;DHT22;53144;51.524;5.080;2022-12-29T00:53:30;10.19;97.15
66343;DHT22;53144;51.524;5.080;2022-12-29T00:55:55;10.24;97.12
66343;DHT22;53144;51.524;5.080;2022-12-29T00:58:21;10.26;97.10
66343;DHT22;53144;51.524;5.080;2022-12-29T01:00:46;10.34;96.82
66343;DHT22;53144;51.524;5.080;2022-12-29T01:03:11;10.32;96.80
66343;DHT22;53144;51.524;5.080;2022-12-29T01:05:36;10.41;96.58
66343;DHT22;53144;51.524;5.080;2022-12-29T01:08:02;10.50;95.96
66343;DHT22;53144;51.524;5.080;2022-12-29T01:10:27;10.54;95.82
66343;DHT22;53144;51.524;5.080;2022-12-29T01:12:53;10.65;95.02
66343;DHT22;53144;51.524;5.080;2022-12-29T01:15:18;10.65;95.18
66343;DHT22;53144;51.524;5.080;2022-12-29T01:17:44;10.78;94.07
66343;DHT22;53144;51.524;5.080;2022-12-29T01:20:10;10.81;94.33
66343;DHT22;53144;51.524;5.080;2022-12-29T01:22:36;10.84;93.76
66343;DHT22;53144;51.524;5.080;2022-12-29T01:25:01;10.92;93.36
66343;DHT22;53144;51.524;5.080;2022-12-29T01:27:26;10.92;93.38
66343;DHT22;53144;51.524;5.080;2022-12-29T01:29:51;10.98;92.68
66343;DHT22;53144;51.524;5.080;2022-12-29T01:32:17;10.99;92.75
66343;DHT22;53144;51.524;5.080;2022-12-29T01:34:42;11.05;92.07
66343;DHT22;53144;51.524;5.080;2022-12-29T01:37:07;11.08;91.37
66343;DHT22;53144;51.524;5.080;2022-12-29T01:39:33;11.16;90.64
66343;DHT22;53144;51.524;5.080;2022-12-29T01:41:58;11.23;90.25
66343;DHT22;53144;51.524;5.080;2022-12-29T01:47:08;11.26;89.77
66343;DHT22;53144;51.524;5.080;2022-12-29T01:49:33;11.26;89.95
66343;DHT22;53144;51.524;5.080;2022-12-29T01:52:05;11.30;89.67
66343;DHT22;53144;51.524;5.080;2022-12-29T01:54:43;11.37;88.80
66343;DHT22;53144;51.524;5.080;2022-12-29T01:57:15;11.43;88.65
66343;DHT22;53144;51.524;5.080;2022-12-29T01:59:50;11.39;89.17
66343;DHT22;53144;51.524;5.080;2022-12-29T02:02:17;11.39;88.77
66343;DHT22;53144;51.524;5.080;2022-12-29T02:04:42;11.42;88.63
66343;DHT22;53144;51.524;5.080;2022-12-29T02:07:19;11.46;88.11
66343;DHT22;53144;51.524;5.080;2022-12-29T02:09:48;11.50;88.03
66343;DHT22;53144;51.524;5.080;2022-12-29T02:12:16;11.43;88.22
66343;DHT22;53144;51.524;5.080;2022-12-29T02:14:42;11.53;87.66
66343;DHT22;53144;51.524;5.080;2022-12-29T02:30:57;11.49;87.85
66343;DHT22;53144;51.524;5.080;2022-12-29T02:36:35;11.49;88.10
66343;DHT22;53144;51.524;5.080;2022-12-29T02:39:26;11.37;88.73
66343;DHT22;53144;51.524;5.080;2022-12-29T02:44:47;11.39;88.40
66343;DHT22;53144;51.524;5.080;2022-12-29T02:47:27;11.36;89.14
66343;DHT22;53144;51.524;5.080;2022-12-29T02:50:14;11.37;88.65
66343;DHT22;53144;51.524;5.080;2022-12-29T02:52:51;11.33;88.69
66343;DHT22;53144;51.524;5.080;2022-12-29T02:55:19;11.29;88.83
66343;DHT22;53144;51.524;5.080;2022-12-29T02:57:44;11.15;89.26
66343;DHT22;53144;51.524;5.080;2022-12-29T03:00:13;11.14;89.40
66343;DHT22;53144;51.524;5.080;2022-12-29T03:11:04;11.05;89.56
66343;DHT22;53144;51.524;5.080;2022-12-29T03:16:31;10.98;89.64
66343;DHT22;53144;51.524;5.080;2022-12-29T03:19:23;10.91;89.91
66343;DHT22;53144;51.524;5.080;2022-12-29T03:22:05;10.89;90.12
66343;DHT22;53144;51.524;5.080;2022-12-29T03:24:53;10.86;90.19
66343;DHT22;53144;51.524;5.080;2022-12-29T03:27:22;10.86;90.09
66343;DHT22;53144;51.524;5.080;2022-12-29T03:29:52;10.79;90.30
66343;DHT22;53144;51.524;5.080;2022-12-29T03:32:24;10.78;90.49
66343;DHT22;53144;51.524;5.080;2022-12-29T03:34:51;10.77;90.51
66343;DHT22;53144;51.524;5.080;2022-12-29T03:37:22;10.74;90.62
66343;DHT22;53144;51.524;5.080;2022-12-29T03:39:49;10.65;90.96
66343;DHT22;53144;51.524;5.080;2022-12-29T03:42:16;10.77;90.53
66343;DHT22;53144;51.524;5.080;2022-12-29T03:44:44;10.74;90.76
66343;DHT22;53144;51.524;5.080;2022-12-29T03:47:11;10.79;90.37
66343;DHT22;53144;51.524;5.080;2022-12-29T03:49:37;10.82;90.31
66343;DHT22;53144;51.524;5.080;2022-12-29T03:52:02;10.88;90.22
66343;DHT22;53144;51.524;5.080;2022-12-29T03:54:28;10.82;90.51
66343;DHT22;53144;51.524;5.080;2022-12-29T03:56:54;10.81;90.47
66343;DHT22;53144;51.524;5.080;2022-12-29T03:59:19;10.81;90.53
66343;DHT22;53144;51.524;5.080;2022-12-29T04:01:45;10.79;90.61
66343;DHT22;53144;51.524;5.080;2022-12-29T04:04:10;10.84;90.23
66343;DHT22;53144;51.524;5.080;2022-12-29T04:06:36;10.81;90.64
66343;DHT22;53144;51.524;5.080;2022-12-29T04:09:01;10.75;90.52
66343;DHT22;53144;51.524;5.080;2022-12-29T04:11:26;10.79;89.99
66343;DHT22;53144;51.524;5.080;2022-12-29T04:13:52;10.71;90.20
66343;DHT22;53144;51.524;5.080;2022-12-29T04:16:17;10.69;90.24
66343;DHT22;53144;51.524;5.080;2022-12-29T04:18:42;10.69;89.51
66343;DHT22;53144;51.524;5.080;2022-12-29T04:21:08;10.72;89.33
66343;DHT22;53144;51.524;5.080;2022-12-29T04:23:36;10.79;88.71
66343;DHT22;53144;51.524;5.080;2022-12-29T04:26:02;10.86;88.64
66343;DHT22;53144;51.524;5.080;2022-12-29T04:28:27;10.84;88.15
66343;DHT22;53144;51.524;5.080;2022-12-29T04:30:53;10.94;87.36
66343;DHT22;53144;51.524;5.080;2022-12-29T04:33:18;10.84;87.28
66343;DHT22;53144;51.524;5.080;2022-12-29T04:35:44;10.72;87.86
66343;DHT22;53144;51.524;5.080;2022-12-29T04:38:09;10.74;87.10
66343;DHT22;53144;51.524;5.080;2022-12-29T04:40:35;10.65;87.49
66343;DHT22;53144;51.524;5.080;2022-12-29T04:43:02;10.57;87.75
66343;DHT22;53144;51.524;5.080;2022-12-29T04:45:28;10.61;87.35
66343;DHT22;53144;51.524;5.080;2022-12-29T04:47:53;10.48;87.51
66343;DHT22;53144;51.524;5.080;2022-12-29T04:50:18;10.46;87.41
66343;DHT22;53144;51.524;5.080;2022-12-29T04:52:44;10.43;87.37
66343;DHT22;53144;51.524;5.080;2022-12-29T04:55:09;10.41;87.66
66343;DHT22;53144;51.524;5.080;2022-12-29T04:57:34;10.41;87.29
66343;DHT22;53144;51.524;5.080;2022-12-29T05:00:00;10.34;87.87
66343;DHT22;53144;51.524;5.080;2022-12-29T05:02:25;10.34;87.86
66343;DHT22;53144;51.524;5.080;2022-12-29T05:04:50;10.33;87.81
66343;DHT22;53144;51.524;5.080;2022-12-29T05:07:16;10.36;87.53
66343;DHT22;53144;51.524;5.080;2022-12-29T05:09:41;10.34;88.04
66343;DHT22;53144;51.524;5.080;2022-12-29T05:12:06;10.38;87.33
66343;DHT22;53144;51.524;5.080;2022-12-29T05:14:32;10.47;86.94
66343;DHT22;53144;51.524;5.080;2022-12-29T05:16:57;10.47;86.75
66343;DHT22;53144;51.524;5.080;2022-12-29T05:19:23;10.44;87.01
66343;DHT22;53144;51.524;5.080;2022-12-29T05:21:48;10.46;86.73
66343;DHT22;53144;51.524;5.080;2022-12-29T05:24:14;10.47;86.49
66343;DHT22;53144;51.524;5.080;2022-12-29T05:26:40;10.50;85.92
66343;DHT22;53144;51.524;5.080;2022-12-29T05:29:05;10.48;85.85
66343;DHT22;53144;51.524;5.080;2022-12-29T05:31:31;10.43;86.06
66343;DHT22;53144;51.524;5.080;2022-12-29T05:33:56;10.38;86.34
66343;DHT22;53144;51.524;5.080;2022-12-29T05:36:21;10.40;86.48
66343;DHT22;53144;51.524;5.080;2022-12-29T05:38:47;10.41;85.82
66343;DHT22;53144;51.524;5.080;2022-12-29T05:41:12;10.41;85.87
66343;DHT22;53144;51.524;5.080;2022-12-29T05:43:37;10.48;85.14
66343;DHT22;53144;51.524;5.080;2022-12-29T05:46:03;10.50;85.13
66343;DHT22;53144;51.524;5.080;2022-12-29T05:48:28;10.47;85.40
66343;DHT22;53144;51.524;5.080;2022-12-29T05:50:54;10.46;85.38
66343;DHT22;53144;51.524;5.080;2022-12-29T05:53:19;10.46;85.50
66343;DHT22;53144;51.524;5.080;2022-12-29T05:55:46;10.48;84.96
66343;DHT22;53144;51.524;5.080;2022-12-29T05:58:11;10.48;85.08
66343;DHT22;53144;51.524;5.080;2022-12-29T06:00:37;10.53;84.77
66343;DHT22;53144;51.524;5.080;2022-12-29T06:03:03;10.50;84.88
66343;DHT22;53144;51.524;5.080;2022-12-29T06:05:28;10.51;84.75
66343;DHT22;53144;51.524;5.080;2022-12-29T06:07:53;10.56;84.23
66343;DHT22;53144;51.524;5.080;2022-12-29T06:10:19;10.58;84.19
66343;DHT22;53144;51.524;5.080;2022-12-29T06:12:44;10.60;83.98
66343;DHT22;53144;51.524;5.080;2022-12-29T06:15:10;10.54;84.19
66343;DHT22;53144;51.524;5.080;2022-12-29T06:17:35;10.57;83.71
66343;DHT22;53144;51.524;5.080;2022-12-29T06:20:01;10.56;84.13
66343;DHT22;53144;51.524;5.080;2022-12-29T06:22:27;10.57;83.59
66343;DHT22;53144;51.524;5.080;2022-12-29T06:24:52;10.50;84.33
66343;DHT22;53144;51.524;5.080;2022-12-29T06:27:17;10.46;84.57
66343;DHT22;53144;51.524;5.080;2022-12-29T06:29:43;10.41;84.44
66343;DHT22;53144;51.524;5.080;2022-12-29T06:32:08;10.40;84.41
66343;DHT22;53144;51.524;5.080;2022-12-29T06:34:34;10.43;84.69
66343;DHT22;53144;51.524;5.080;2022-12-29T06:36:59;10.46;84.53
66343;DHT22;53144;51.524;5.080;2022-12-29T06:39:26;10.58;83.97
66343;DHT22;53144;51.524;5.080;2022-12-29T06:41:52;10.54;84.58
66343;DHT22;53144;51.524;5.080;2022-12-29T06:44:20;10.48;85.05
66343;DHT22;53144;51.524;5.080;2022-12-29T06:46:46;10.46;84.97
66343;DHT22;53144;51.524;5.080;2022-12-29T06:49:11;10.46;85.12
66343;DHT22;53144;51.524;5.080;2022-12-29T06:51:37;10.53;84.38
66343;DHT22;53144;51.524;5.080;2022-12-29T06:54:02;10.58;84.07
66343;DHT22;53144;51.524;5.080;2022-12-29T06:56:27;10.53;84.36
66343;DHT22;53144;51.524;5.080;2022-12-29T06:58:53;10.58;84.02
66343;DHT22;53144;51.524;5.080;2022-12-29T07:01:18;10.61;83.42
66343;DHT22;53144;51.524;5.080;2022-12-29T07:03:43;10.57;83.61
66343;DHT22;53144;51.524;5.080;2022-12-29T07:06:09;10.50;83.61
66343;DHT22;53144;51.524;5.080;2022-12-29T07:08:34;10.41;83.87
66343;DHT22;53144;51.524;5.080;2022-12-29T07:10:59;10.40;83.81
66343;DHT22;53144;51.524;5.080;2022-12-29T07:13:25;10.34;83.94
66343;DHT22;53144;51.524;5.080;2022-12-29T07:15:50;10.43;82.99
66343;DHT22;53144;51.524;5.080;2022-12-29T07:18:15;10.44;82.93
66343;DHT22;53144;51.524;5.080;2022-12-29T07:20:41;10.41;82.94
66343;DHT22;53144;51.524;5.080;2022-12-29T07:23:06;10.44;82.14
66343;DHT22;53144;51.524;5.080;2022-12-29T07:25:31;10.37;82.46
66343;DHT22;53144;51.524;5.080;2022-12-29T07:27:57;10.30;82.53
66343;DHT22;53144;51.524;5.080;2022-12-29T07:30:22;10.19;82.55
66343;DHT22;53144;51.524;5.080;2022-12-29T07:32:48;10.21;82.03
66343;DHT22;53144;51.524;5.080;2022-12-29T07:35:13;10.32;81.89
66343;DHT22;53144;51.524;5.080;2022-12-29T07:37:38;10.37;82.28
66343;DHT22;53144;51.524;5.080;2022-12-29T07:40:04;10.34;82.69
66343;DHT22;53144;51.524;5.080;2022-12-29T07:42:31;10.38;82.35
66343;DHT22;53144;51.524;5.080;2022-12-29T07:44:56;10.33;83.20
66343;DHT22;53144;51.524;5.080;2022-12-29T07:47:21;10.30;83.68
66343;DHT22;53144;51.524;5.080;2022-12-29T07:49:47;10.37;83.43
66343;DHT22;53144;51.524;5.080;2022-12-29T07:52:12;10.30;83.94
66343;DHT22;53144;51.524;5.080;2022-12-29T07:54:38;10.30;84.00
66343;DHT22;53144;51.524;5.080;2022-12-29T07:57:04;10.23;84.87
66343;DHT22;53144;51.524;5.080;2022-12-29T07:59:30;10.20;85.23
66343;DHT22;53144;51.524;5.080;2022-12-29T08:01:55;10.14;85.39
66343;DHT22;53144;51.524;5.080;2022-12-29T08:04:21;10.10;85.63
66343;DHT22;53144;51.524;5.080;2022-12-29T08:06:46;10.05;86.00
66343;DHT22;53144;51.524;5.080;2022-12-29T08:09:12;10.07;85.79
66343;DHT22;53144;51.524;5.080;2022-12-29T08:11:37;10.12;85.05
66343;DHT22;53144;51.524;5.080;2022-12-29T08:14:03;10.21;84.39
66343;DHT22;53144;51.524;5.080;2022-12-29T08:16:28;10.30;83.54
66343;DHT22;53144;51.524;5.080;2022-12-29T08:18:54;10.36;82.74
66343;DHT22;53144;51.524;5.080;2022-12-29T08:21:19;10.40;82.60
66343;DHT22;53144;51.524;5.080;2022-12-29T08:23:44;10.48;81.39
66343;DHT22;53144;51.524;5.080;2022-12-29T08:26:13;10.57;80.66
66343;DHT22;53144;51.524;5.080;2022-12-29T08:28:38;10.57;81.02
66343;DHT22;53144;51.524;5.080;2022-12-29T08:31:04;10.56;81.54
66343;DHT22;53144;51.524;5.080;2022-12-29T08:33:30;10.67;80.67
66343;DHT22;53144;51.524;5.080;2022-12-29T08:35:59;10.77;79.68
66343;DHT22;53144;51.524;5.080;2022-12-29T08:38:27;10.74;80.02
66343;DHT22;53144;51.524;5.080;2022-12-29T08:40:52;10.71;80.35
66343;DHT22;53144;51.524;5.080;2022-12-29T08:43:17;10.71;80.37
66343;DHT22;53144;51.524;5.080;2022-12-29T08:45:43;10.68;79.58
66343;DHT22;53144;51.524;5.080;2022-12-29T08:48:08;10.74;79.84
66343;DHT22;53144;51.524;5.080;2022-12-29T08:50:34;10.77;80.35
66343;DHT22;53144;51.524;5.080;2022-12-29T08:52:59;10.72;80.70
66343;DHT22;53144;51.524;5.080;2022-12-29T08:55:24;10.77;80.17
66343;DHT22;53144;51.524;5.080;2022-12-29T08:57:50;10.74;79.95
66343;DHT22;53144;51.524;5.080;2022-12-29T09:00:18;10.67;80.85
66343;DHT22;53144;51.524;5.080;2022-12-29T09:02:46;10.64;81.55
66343;DHT22;53144;51.524;5.080;2022-12-29T09:05:11;10.53;82.42
66343;DHT22;53144;51.524;5.080;2022-12-29T09:07:36;10.43;82.73
66343;DHT22;53144;51.524;5.080;2022-12-29T09:10:02;10.36;83.86
66343;DHT22;53144;51.524;5.080;2022-12-29T09:12:28;10.30;84.90
66343;DHT22;53144;51.524;5.080;2022-12-29T09:14:53;10.13;86.50
66343;DHT22;53144;51.524;5.080;2022-12-29T09:17:19;9.98;87.31
66343;DHT22;53144;51.524;5.080;2022-12-29T09:20:04;9.89;87.27
66343;DHT22;53144;51.524;5.080;2022-12-29T09:22:30;9.89;87.87
66343;DHT22;53144;51.524;5.080;2022-12-29T09:24:59;9.89;87.61
66343;DHT22;53144;51.524;5.080;2022-12-29T09:27:26;9.86;88.53
66343;DHT22;53144;51.524;5.080;2022-12-29T09:29:51;9.89;87.62
66343;DHT22;53144;51.524;5.080;2022-12-29T09:32:16;9.83;88.61
66343;DHT22;53144;51.524;5.080;2022-12-29T09:34:42;9.79;88.93
66343;DHT22;53144;51.524;5.080;2022-12-29T09:37:07;9.72;89.95
66343;DHT22;53144;51.524;5.080;2022-12-29T09:39:32;9.58;90.15
66343;DHT22;53144;51.524;5.080;2022-12-29T09:42:03;9.45;91.47
66343;DHT22;53144;51.524;5.080;2022-12-29T09:44:46;9.38;91.75
66343;DHT22;53144;51.524;5.080;2022-12-29T09:47:14;9.34;91.76
66343;DHT22;53144;51.524;5.080;2022-12-29T09:49:44;9.34;92.34
66343;DHT22;53144;51.524;5.080;2022-12-29T09:52:18;9.32;92.88
66343;DHT22;53144;51.524;5.080;2022-12-29T09:54:55;9.30;92.55
66343;DHT22;53144;51.524;5.080;2022-12-29T09:57:32;9.24;93.38
66343;DHT22;53144;51.524;5.080;2022-12-29T10:00:05;9.21;93.81
66343;DHT22;53144;51.524;5.080;2022-12-29T10:02:38;9.21;93.47
66343;DHT22;53144;51.524;5.080;2022-12-29T10:05:15;9.14;93.76
66343;DHT22;53144;51.524;5.080;2022-12-29T10:10:57;9.10;94.43
66343;DHT22;53144;51.524;5.080;2022-12-29T10:16:08;9.11;94.12
66343;DHT22;53144;51.524;5.080;2022-12-29T10:18:50;9.11;93.64
66343;DHT22;53144;51.524;5.080;2022-12-29T10:24:21;9.10;93.79
66343;DHT22;53144;51.524;5.080;2022-12-29T10:26:50;9.17;93.65
66343;DHT22;53144;51.524;5.080;2022-12-29T10:29:22;9.18;93.86
66343;DHT22;53144;51.524;5.080;2022-12-29T10:32:00;9.18;93.68
66343;DHT22;53144;51.524;5.080;2022-12-29T10:34:31;9.18;92.71
66343;DHT22;53144;51.524;5.080;2022-12-29T10:37:04;9.21;92.94
66343;DHT22;53144;51.524;5.080;2022-12-29T10:39:49;9.26;92.15
66343;DHT22;53144;51.524;5.080;2022-12-29T10:42:25;9.32;91.97
66343;DHT22;53144;51.524;5.080;2022-12-29T10:44:51;9.44;91.49
66343;DHT22;53144;51.524;5.080;2022-12-29T10:47:22;9.48;90.94
66343;DHT22;53144;51.524;5.080;2022-12-29T10:49:49;9.51;91.31
66343;DHT22;53144;51.524;5.080;2022-12-29T10:52:16;9.51;91.59
66343;DHT22;53144;51.524;5.080;2022-12-29T10:54:51;9.54;91.32
66343;DHT22;53144;51.524;5.080;2022-12-29T10:57:24;9.57;91.36
66343;DHT22;53144;51.524;5.080;2022-12-29T10:59:50;9.57;91.19
66343;DHT22;53144;51.524;5.080;2022-12-29T11:02:47;9.63;91.15
66343;DHT22;53144;51.524;5.080;2022-12-29T11:08:12;9.74;89.90
66343;DHT22;53144;51.524;5.080;2022-12-29T11:10:40;9.82;89.83
66343;DHT22;53144;51.524;5.080;2022-12-29T11:13:48;9.86;88.81
66343;DHT22;53144;51.524;5.080;2022-12-29T11:16:05;9.93;88.57
66343;DHT22;53144;51.524;5.080;2022-12-29T11:18:34;9.95;88.33
66343;DHT22;53144;51.524;5.080;2022-12-29T11:21:07;9.99;88.58
66343;DHT22;53144;51.524;5.080;2022-12-29T11:23:59;10.02;88.36
66343;DHT22;53144;51.524;5.080;2022-12-29T11:26:24;10.06;87.95
66343;DHT22;53144;51.524;5.080;2022-12-29T11:29:14;10.10;87.46
66343;DHT22;53144;51.524;5.080;2022-12-29T11:31:58;10.13;87.81
66343;DHT22;53144;51.524;5.080;2022-12-29T11:34:32;10.13;87.91
66343;DHT22;53144;51.524;5.080;2022-12-29T11:37:04;10.10;87.80
66343;DHT22;53144;51.524;5.080;2022-12-29T11:42:17;10.02;88.74
66343;DHT22;53144;51.524;5.080;2022-12-29T11:44:46;9.99;88.94
66343;DHT22;53144;51.524;5.080;2022-12-29T11:47:29;9.95;88.94
66343;DHT22;53144;51.524;5.080;2022-12-29T11:50:00;9.95;89.03
66343;DHT22;53144;51.524;5.080;2022-12-29T11:52:28;9.99;88.56
66343;DHT22;53144;51.524;5.080;2022-12-29T11:54:56;9.98;88.71
66343;DHT22;53144;51.524;5.080;2022-12-29T11:57:23;9.99;88.53
66343;DHT22;53144;51.524;5.080;2022-12-29T11:59:52;9.96;88.49
66343;DHT22;53144;51.524;5.080;2022-12-29T12:04:47;10.02;87.81
66343;DHT22;53144;51.524;5.080;2022-12-29T12:07:39;10.12;87.91
66343;DHT22;53144;51.524;5.080;2022-12-29T12:10:14;10.13;88.19
66343;DHT22;53144;51.524;5.080;2022-12-29T12:13:03;10.16;87.47
66343;DHT22;53144;51.524;5.080;2022-12-29T12:15:40;10.12;86.85
66343;DHT22;53144;51.524;5.080;2022-12-29T12:18:34;10.16;86.70
66343;DHT22;53144;51.524;5.080;2022-12-29T12:27:00;10.47;86.41
66343;DHT22;53144;51.524;5.080;2022-12-29T12:29:43;10.57;85.02
66343;DHT22;53144;51.524;5.080;2022-12-29T12:32:17;10.67;84.19
66343;DHT22;53144;51.524;5.080;2022-12-29T12:34:45;10.74;83.40
66343;DHT22;53144;51.524;5.080;2022-12-29T12:40:04;10.79;82.74
66343;DHT22;53144;51.524;5.080;2022-12-29T12:51:41;10.71;83.01
66343;DHT22;53144;51.524;5.080;2022-12-29T13:10:47;9.51;92.07
66343;DHT22;53144;51.524;5.080;2022-12-29T13:13:42;9.24;93.00
66343;DHT22;53144;51.524;5.080;2022-12-29T13:19:11;9.10;94.51
66343;DHT22;53144;51.524;5.080;2022-12-29T13:24:15;9.13;94.14
66343;DHT22;53144;51.524;5.080;2022-12-29T13:29:58;9.13;94.03
66343;DHT22;53144;51.524;5.080;2022-12-29T13:32:49;9.09;93.49
66343;DHT22;53144;51.524;5.080;2022-12-29T13:38:12;9.16;93.09
66343;DHT22;53144;51.524;5.080;2022-12-29T13:40:43;9.13;93.09
66343;DHT22;53144;51.524;5.080;2022-12-29T13:43:11;9.16;92.42
66343;DHT22;53144;51.524;5.080;2022-12-29T13:45:39;9.14;92.28
66343;DHT22;53144;51.524;5.080;2022-12-29T13:48:23;9.16;93.60
66343;DHT22;53144;51.524;5.080;2022-12-29T13:50:54;9.11;92.28
66343;DHT22;53144;51.524;5.080;2022-12-29T13:56:24;9.17;93.01
66343;DHT22;53144;51.524;5.080;2022-12-29T13:58:58;9.18;93.39
66343;DHT22;53144;51.524;5.080;2022-12-29T14:01:39;9.21;93.59
66343;DHT22;53144;51.524;5.080;2022-12-29T14:04:13;9.17;93.54
66343;DHT22;53144;51.524;5.080;2022-12-29T14:06:39;9.17;93.49
66343;DHT22;53144;51.524;5.080;2022-12-29T14:12:42;9.14;93.37
66343;DHT22;53144;51.524;5.080;2022-12-29T14:17:40;9.14;93.53
66343;DHT22;53144;51.524;5.080;2022-12-29T14:20:20;9.03;93.83
66343;DHT22;53144;51.524;5.080;2022-12-29T14:23:01;9.03;93.98
66343;DHT22;53144;51.524;5.080;2022-12-29T14:28:27;8.99;94.43
66343;DHT22;53144;51.524;5.080;2022-12-29T14:30:55;9.00;94.44
66343;DHT22;53144;51.524;5.080;2022-12-29T14:33:22;8.96;94.14
66343;DHT22;53144;51.524;5.080;2022-12-29T14:35:50;8.99;93.49
66343;DHT22;53144;51.524;5.080;2022-12-29T14:38:28;9.03;92.88
66343;DHT22;53144;51.524;5.080;2022-12-29T14:41:24;9.06;92.55
66343;DHT22;53144;51.524;5.080;2022-12-29T14:44:20;9.04;92.77
66343;DHT22;53144;51.524;5.080;2022-12-29T14:49:43;9.06;92.68
66343;DHT22;53144;51.524;5.080;2022-12-29T14:52:30;9.04;93.09
66343;DHT22;53144;51.524;5.080;2022-12-29T14:54:59;9.01;93.11
66343;DHT22;53144;51.524;5.080;2022-12-29T14:57:29;9.01;92.14
66343;DHT22;53144;51.524;5.080;2022-12-29T15:00:03;9.00;91.93
66343;DHT22;53144;51.524;5.080;2022-12-29T15:02:34;8.96;92.29
66343;DHT22;53144;51.524;5.080;2022-12-29T15:05:05;9.00;92.17
66343;DHT22;53144;51.524;5.080;2022-12-29T15:07:32;8.94;92.21
66343;DHT22;53144;51.524;5.080;2022-12-29T15:10:07;8.96;92.28
66343;DHT22;53144;51.524;5.080;2022-12-29T15:12:51;8.87;92.71
66343;DHT22;53144;51.524;5.080;2022-12-29T15:17:47;8.87;91.92
66343;DHT22;53144;51.524;5.080;2022-12-29T15:22:58;8.80;91.29
66343;DHT22;53144;51.524;5.080;2022-12-29T15:25:26;8.83;90.69
66343;DHT22;53144;51.524;5.080;2022-12-29T15:27:52;8.87;89.25
66343;DHT22;53144;51.524;5.080;2022-12-29T15:30:22;8.77;89.62
66343;DHT22;53144;51.524;5.080;2022-12-29T15:32:51;8.87;88.04
66343;DHT22;53144;51.524;5.080;2022-12-29T15:35:34;8.80;88.93
66343;DHT22;53144;51.524;5.080;2022-12-29T15:38:16;8.76;88.91
66343;DHT22;53144;51.524;5.080;2022-12-29T15:40:45;8.68;89.05
66343;DHT22;53144;51.524;5.080;2022-12-29T15:46:35;8.70;88.91
66343;DHT22;53144;51.524;5.080;2022-12-29T15:49:05;8.60;90.13
66343;DHT22;53144;51.524;5.080;2022-12-29T15:51:35;8.58;90.22
66343;DHT22;53144;51.524;5.080;2022-12-29T15:54:02;8.56;89.86
66343;DHT22;53144;51.524;5.080;2022-12-29T15:56:34;8.46;90.59
66343;DHT22;53144;51.524;5.080;2022-12-29T15:59:00;8.45;90.31
66343;DHT22;53144;51.524;5.080;2022-12-29T16:01:30;8.41;90.22
66343;DHT22;53144;51.524;5.080;2022-12-29T16:03:58;8.44;89.89
66343;DHT22;53144;51.524;5.080;2022-12-29T16:06:31;8.37;90.08
66343;DHT22;53144;51.524;5.080;2022-12-29T16:11:57;8.44;87.82
66343;DHT22;53144;51.524;5.080;2022-12-29T16:14:48;8.42;87.84
66343;DHT22;53144;51.524;5.080;2022-12-29T16:17:20;8.42;87.33
66343;DHT22;53144;51.524;5.080;2022-12-29T16:19:50;8.46;87.10
66343;DHT22;53144;51.524;5.080;2022-12-29T16:22:32;8.41;87.98
66343;DHT22;53144;51.524;5.080;2022-12-29T16:25:02;8.42;87.97
66343;DHT22;53144;51.524;5.080;2022-12-29T16:27:34;8.42;87.95
66343;DHT22;53144;51.524;5.080;2022-12-29T16:30:05;8.37;87.48
66343;DHT22;53144;51.524;5.080;2022-12-29T16:32:32;8.32;87.61
66343;DHT22;53144;51.524;5.080;2022-12-29T16:38:18;8.25;88.13
66343;DHT22;53144;51.524;5.080;2022-12-29T16:40:59;8.25;87.28
66343;DHT22;53144;51.524;5.080;2022-12-29T16:43:30;8.21;87.84
66343;DHT22;53144;51.524;5.080;2022-12-29T16:48:29;8.20;87.36
66343;DHT22;53144;51.524;5.080;2022-12-29T16:51:32;8.18;87.08
66343;DHT22;53144;51.524;5.080;2022-12-29T16:53:58;8.17;88.04
66343;DHT22;53144;51.524;5.080;2022-12-29T16:56:27;8.10;87.66
66343;DHT22;53144;51.524;5.080;2022-12-29T17:01:34;8.17;87.35
66343;DHT22;53144;51.524;5.080;2022-12-29T17:04:04;8.15;88.05
66343;DHT22;53144;51.524;5.080;2022-12-29T17:06:30;8.18;87.30
66343;DHT22;53144;51.524;5.080;2022-12-29T17:08:56;8.17;86.77
66343;DHT22;53144;51.524;5.080;2022-12-29T17:11:29;8.07;87.62
66343;DHT22;53144;51.524;5.080;2022-12-29T17:16:46;7.98;87.13
66343;DHT22;53144;51.524;5.080;2022-12-29T17:19:16;8.00;86.80
66343;DHT22;53144;51.524;5.080;2022-12-29T17:21:42;7.93;87.27
66343;DHT22;53144;51.524;5.080;2022-12-29T17:24:18;7.84;87.57
66343;DHT22;53144;51.524;5.080;2022-12-29T17:26:45;7.84;87.41
66343;DHT22;53144;51.524;5.080;2022-12-29T17:29:39;7.81;87.16
66343;DHT22;53144;51.524;5.080;2022-12-29T17:32:06;7.84;86.73
66343;DHT22;53144;51.524;5.080;2022-12-29T17:34:34;7.79;87.36
66343;DHT22;53144;51.524;5.080;2022-12-29T17:37:00;7.73;87.11
66343;DHT22;53144;51.524;5.080;2022-12-29T17:39:25;7.77;86.18
66343;DHT22;53144;51.524;5.080;2022-12-29T17:41:51;7.76;86.61
66343;DHT22;53144;51.524;5.080;2022-12-29T17:44:18;7.79;86.31
66343;DHT22;53144;51.524;5.080;2022-12-29T17:46:47;7.81;86.36
66343;DHT22;53144;51.524;5.080;2022-12-29T17:49:15;7.73;86.96
66343;DHT22;53144;51.524;5.080;2022-12-29T17:51:42;7.67;87.18
66343;DHT22;53144;51.524;5.080;2022-12-29T17:54:17;7.63;87.12
66343;DHT22;53144;51.524;5.080;2022-12-29T17:56:44;7.59;87.01
66343;DHT22;53144;51.524;5.080;2022-12-29T17:59:13;7.59;87.19
66343;DHT22;53144;51.524;5.080;2022-12-29T18:01:40;7.56;87.37
66343;DHT22;53144;51.524;5.080;2022-12-29T18:04:06;7.49;87.48
66343;DHT22;53144;51.524;5.080;2022-12-29T18:06:32;7.60;86.61
66343;DHT22;53144;51.524;5.080;2022-12-29T18:08:57;7.62;86.94
66343;DHT22;53144;51.524;5.080;2022-12-29T18:11:24;7.59;87.19